Impacts METAR Board INFO
IDs:

KATL - Atlanta/Hartsfield-J, GA, US

Updated at: 1113 UTC 11 Dec 2017
Potential Impact None Slight Moderate High
Time10/23Z 11/00Z 11/01Z 11/02Z 11/03Z 11/04Z 11/05Z 11/06Z 11/07Z 11/08Z 11/09Z 11/10Z 11/11Z
VIS10 10 10 10 10 10 10 10 10 10 10 10 10
CIG-- -- -- -- -- -- -- -- -- -- -- -- --
CoverCLRCLRCLRCLRCLRCLRCLRCLRCLRCLRCLRCLRCLR
FltCatVFRVFRVFRVFRVFRVFRVFRVFRVFRVFRVFRVFRVFR
WX--------------------------
WDir270280240270250270280270260240260260290
WSpd4 7 4 6 5 6 7 5 4 3 5 4 5
WGst-- -- -- -- -- -- -- -- -- -- -- -- --
Raw hourly METARs
KATL 102252Z 27004KT 10SM CLR 04/M03 A3022 RMK AO2 SLP242 T00391033
KATL 102352Z 28007KT 10SM CLR 02/M03 A3023 RMK AO2 SLP247 T00221033 10072 20022 53002
KATL 110052Z 24004KT 10SM CLR 03/M03 A3022 RMK AO2 SLP244 T00281033
KATL 110152Z 27006KT 10SM CLR 03/M04 A3022 RMK AO2 SLP244 T00281039
KATL 110252Z 25005KT 10SM CLR 03/M04 A3022 RMK AO2 SLP243 T00281039 56002
KATL 110352Z 27006KT 10SM CLR 02/M03 A3025 RMK AO2 SLP250 T00171028
KATL 110452Z 28007KT 10SM CLR 01/M03 A3024 RMK AO2 SLP249 T00111028 400721033
KATL 110552Z 27005KT 10SM CLR 01/M03 A3023 RMK AO2 SLP244 T00111028 10028 20011 50003
KATL 110652Z 26004KT 10SM CLR 01/M02 A3022 RMK AO2 SLP239 T00111022
KATL 110752Z 24003KT 10SM CLR 01/M02 A3021 RMK AO2 SLP236 T00061022
KATL 110852Z 26005KT 10SM CLR 02/M02 A3019 RMK AO2 SLP230 T00171022 56013
KATL 110952Z 26004KT 10SM CLR 01/M02 A3018 RMK AO2 SLP227 T00111022
KATL 111052Z 29005KT 10SM CLR 01/M02 A3018 RMK AO2 SLP227 T00061022